sensor_id;sensor_type;location;lat;lon;timestamp;P1;durP1;ratioP1;P2;durP2;ratioP2
37859;SDS011;23698;52.014;5.190;2024-03-08T00:02:03;44.85;;;20.83;;
37859;SDS011;23698;52.014;5.190;2024-03-08T00:04:50;41.10;;;18.65;;
37859;SDS011;23698;52.014;5.190;2024-03-08T00:07:39;44.20;;;19.27;;
37859;SDS011;23698;52.014;5.190;2024-03-08T00:10:26;41.67;;;19.08;;
37859;SDS011;23698;52.014;5.190;2024-03-08T00:13:13;36.83;;;18.67;;
37859;SDS011;23698;52.014;5.190;2024-03-08T00:16:01;38.67;;;18.42;;
37859;SDS011;23698;52.014;5.190;2024-03-08T00:18:47;42.90;;;19.25;;
37859;SDS011;23698;52.014;5.190;2024-03-08T00:21:34;44.63;;;20.58;;
37859;SDS011;23698;52.014;5.190;2024-03-08T00:24:22;42.72;;;19.42;;
37859;SDS011;23698;52.014;5.190;2024-03-08T00:27:10;46.00;;;21.15;;
37859;SDS011;23698;52.014;5.190;2024-03-08T00:29:57;44.60;;;19.23;;
37859;SDS011;23698;52.014;5.190;2024-03-08T00:32:44;46.63;;;21.17;;
37859;SDS011;23698;52.014;5.190;2024-03-08T00:35:31;42.28;;;19.40;;
37859;SDS011;23698;52.014;5.190;2024-03-08T00:38:18;47.30;;;20.23;;
37859;SDS011;23698;52.014;5.190;2024-03-08T00:41:06;40.08;;;19.23;;
37859;SDS011;23698;52.014;5.190;2024-03-08T00:43:52;43.28;;;19.67;;
37859;SDS011;23698;52.014;5.190;2024-03-08T00:46:39;41.47;;;18.98;;
37859;SDS011;23698;52.014;5.190;2024-03-08T00:49:26;42.72;;;19.52;;
37859;SDS011;23698;52.014;5.190;2024-03-08T00:52:12;47.20;;;20.42;;
37859;SDS011;23698;52.014;5.190;2024-03-08T00:55:00;44.35;;;19.77;;
37859;SDS011;23698;52.014;5.190;2024-03-08T00:57:48;46.42;;;21.20;;
37859;SDS011;23698;52.014;5.190;2024-03-08T01:00:35;44.25;;;19.83;;
37859;SDS011;23698;52.014;5.190;2024-03-08T01:03:23;50.53;;;21.23;;
37859;SDS011;23698;52.014;5.190;2024-03-08T01:06:10;43.83;;;20.00;;
37859;SDS011;23698;52.014;5.190;2024-03-08T01:08:57;42.13;;;19.67;;
37859;SDS011;23698;52.014;5.190;2024-03-08T01:11:44;44.92;;;20.75;;
37859;SDS011;23698;52.014;5.190;2024-03-08T01:14:32;40.53;;;19.65;;
37859;SDS011;23698;52.014;5.190;2024-03-08T01:17:18;39.72;;;18.83;;
37859;SDS011;23698;52.014;5.190;2024-03-08T01:20:05;45.90;;;20.02;;
37859;SDS011;23698;52.014;5.190;2024-03-08T01:22:56;46.05;;;18.85;;
37859;SDS011;23698;52.014;5.190;2024-03-08T01:25:42;48.80;;;20.35;;
37859;SDS011;23698;52.014;5.190;2024-03-08T01:28:30;44.30;;;21.98;;
37859;SDS011;23698;52.014;5.190;2024-03-08T01:31:20;40.85;;;19.27;;
37859;SDS011;23698;52.014;5.190;2024-03-08T01:34:07;44.60;;;20.88;;
37859;SDS011;23698;52.014;5.190;2024-03-08T01:36:53;46.20;;;20.70;;
37859;SDS011;23698;52.014;5.190;2024-03-08T01:39:41;39.10;;;19.75;;
37859;SDS011;23698;52.014;5.190;2024-03-08T01:42:27;41.42;;;20.48;;
37859;SDS011;23698;52.014;5.190;2024-03-08T01:45:14;45.72;;;20.73;;
37859;SDS011;23698;52.014;5.190;2024-03-08T01:48:03;49.45;;;21.77;;
37859;SDS011;23698;52.014;5.190;2024-03-08T01:50:51;51.07;;;20.87;;
37859;SDS011;23698;52.014;5.190;2024-03-08T01:53:39;44.72;;;19.10;;
37859;SDS011;23698;52.014;5.190;2024-03-08T01:56:31;48.75;;;21.73;;
37859;SDS011;23698;52.014;5.190;2024-03-08T01:59:18;46.55;;;21.08;;
37859;SDS011;23698;52.014;5.190;2024-03-08T02:02:05;41.20;;;20.15;;
37859;SDS011;23698;52.014;5.190;2024-03-08T02:04:56;43.47;;;20.67;;
37859;SDS011;23698;52.014;5.190;2024-03-08T02:07:42;43.40;;;20.90;;
37859;SDS011;23698;52.014;5.190;2024-03-08T02:10:29;43.15;;;21.63;;
37859;SDS011;23698;52.014;5.190;2024-03-08T02:13:17;40.88;;;19.92;;
37859;SDS011;23698;52.014;5.190;2024-03-08T02:16:04;43.78;;;20.80;;
37859;SDS011;23698;52.014;5.190;2024-03-08T02:18:53;43.35;;;20.58;;
37859;SDS011;23698;52.014;5.190;2024-03-08T02:21:42;45.58;;;21.08;;
37859;SDS011;23698;52.014;5.190;2024-03-08T02:24:31;46.25;;;22.15;;
37859;SDS011;23698;52.014;5.190;2024-03-08T02:27:22;42.20;;;20.42;;
37859;SDS011;23698;52.014;5.190;2024-03-08T02:30:10;47.83;;;21.58;;
37859;SDS011;23698;52.014;5.190;2024-03-08T02:32:58;43.30;;;20.10;;
37859;SDS011;23698;52.014;5.190;2024-03-08T02:35:45;43.00;;;20.63;;
37859;SDS011;23698;52.014;5.190;2024-03-08T02:38:33;40.83;;;19.73;;
37859;SDS011;23698;52.014;5.190;2024-03-08T02:41:20;40.95;;;20.20;;
37859;SDS011;23698;52.014;5.190;2024-03-08T02:44:07;48.05;;;21.77;;
37859;SDS011;23698;52.014;5.190;2024-03-08T02:46:54;43.05;;;22.02;;
37859;SDS011;23698;52.014;5.190;2024-03-08T02:49:41;42.80;;;20.95;;
37859;SDS011;23698;52.014;5.190;2024-03-08T02:52:27;45.70;;;22.48;;
37859;SDS011;23698;52.014;5.190;2024-03-08T02:55:15;46.40;;;22.63;;
37859;SDS011;23698;52.014;5.190;2024-03-08T02:58:02;43.63;;;21.48;;
37859;SDS011;23698;52.014;5.190;2024-03-08T03:00:49;47.40;;;22.15;;
37859;SDS011;23698;52.014;5.190;2024-03-08T03:03:36;44.20;;;22.15;;
37859;SDS011;23698;52.014;5.190;2024-03-08T03:06:22;42.78;;;21.88;;
37859;SDS011;23698;52.014;5.190;2024-03-08T03:09:08;42.85;;;21.42;;
37859;SDS011;23698;52.014;5.190;2024-03-08T03:11:57;49.97;;;23.40;;
37859;SDS011;23698;52.014;5.190;2024-03-08T03:14:44;44.08;;;21.13;;
37859;SDS011;23698;52.014;5.190;2024-03-08T03:17:30;44.60;;;21.13;;
37859;SDS011;23698;52.014;5.190;2024-03-08T03:20:17;45.35;;;22.40;;
37859;SDS011;23698;52.014;5.190;2024-03-08T03:23:12;45.00;;;21.88;;
37859;SDS011;23698;52.014;5.190;2024-03-08T03:26:01;49.17;;;23.20;;
37859;SDS011;23698;52.014;5.190;2024-03-08T03:28:49;47.95;;;23.23;;
37859;SDS011;23698;52.014;5.190;2024-03-08T03:31:35;46.50;;;22.23;;
37859;SDS011;23698;52.014;5.190;2024-03-08T03:34:23;45.40;;;22.40;;
37859;SDS011;23698;52.014;5.190;2024-03-08T03:37:10;45.17;;;23.00;;
37859;SDS011;23698;52.014;5.190;2024-03-08T03:39:57;44.53;;;22.65;;
37859;SDS011;23698;52.014;5.190;2024-03-08T03:42:44;42.92;;;22.25;;
37859;SDS011;23698;52.014;5.190;2024-03-08T03:45:32;50.38;;;23.40;;
37859;SDS011;23698;52.014;5.190;2024-03-08T03:48:21;51.55;;;22.50;;
37859;SDS011;23698;52.014;5.190;2024-03-08T03:51:08;42.13;;;19.95;;
37859;SDS011;23698;52.014;5.190;2024-03-08T03:53:56;48.70;;;23.20;;
37859;SDS011;23698;52.014;5.190;2024-03-08T03:56:43;46.58;;;20.88;;
37859;SDS011;23698;52.014;5.190;2024-03-08T03:59:30;45.40;;;22.02;;
37859;SDS011;23698;52.014;5.190;2024-03-08T04:02:18;45.28;;;21.30;;
37859;SDS011;23698;52.014;5.190;2024-03-08T04:05:05;46.10;;;22.35;;
37859;SDS011;23698;52.014;5.190;2024-03-08T04:07:53;46.10;;;22.17;;
37859;SDS011;23698;52.014;5.190;2024-03-08T04:10:40;50.03;;;24.55;;
37859;SDS011;23698;52.014;5.190;2024-03-08T04:13:27;46.22;;;22.42;;
37859;SDS011;23698;52.014;5.190;2024-03-08T04:16:14;45.00;;;21.45;;
37859;SDS011;23698;52.014;5.190;2024-03-08T04:19:02;42.00;;;21.45;;
37859;SDS011;23698;52.014;5.190;2024-03-08T04:21:50;47.08;;;22.90;;
37859;SDS011;23698;52.014;5.190;2024-03-08T04:24:36;46.28;;;23.40;;
37859;SDS011;23698;52.014;5.190;2024-03-08T04:27:25;50.00;;;22.67;;
37859;SDS011;23698;52.014;5.190;2024-03-08T04:30:12;46.78;;;22.42;;
37859;SDS011;23698;52.014;5.190;2024-03-08T04:32:59;41.67;;;21.02;;
37859;SDS011;23698;52.014;5.190;2024-03-08T04:35:47;44.17;;;22.52;;
37859;SDS011;23698;52.014;5.190;2024-03-08T04:38:34;49.58;;;23.50;;
37859;SDS011;23698;52.014;5.190;2024-03-08T04:41:23;46.10;;;21.65;;
37859;SDS011;23698;52.014;5.190;2024-03-08T04:44:10;40.90;;;21.42;;
37859;SDS011;23698;52.014;5.190;2024-03-08T04:46:58;45.15;;;22.13;;
37859;SDS011;23698;52.014;5.190;2024-03-08T04:49:45;42.70;;;22.50;;
37859;SDS011;23698;52.014;5.190;2024-03-08T04:52:33;43.70;;;22.55;;
37859;SDS011;23698;52.014;5.190;2024-03-08T04:55:20;46.92;;;22.10;;
37859;SDS011;23698;52.014;5.190;2024-03-08T04:58:08;45.40;;;22.88;;
37859;SDS011;23698;52.014;5.190;2024-03-08T05:00:54;47.00;;;22.85;;
37859;SDS011;23698;52.014;5.190;2024-03-08T05:03:41;42.20;;;21.75;;
37859;SDS011;23698;52.014;5.190;2024-03-08T05:06:28;46.60;;;22.65;;
37859;SDS011;23698;52.014;5.190;2024-03-08T05:09:17;44.10;;;22.65;;
37859;SDS011;23698;52.014;5.190;2024-03-08T05:12:04;43.65;;;22.25;;
37859;SDS011;23698;52.014;5.190;2024-03-08T05:14:51;45.58;;;22.63;;
37859;SDS011;23698;52.014;5.190;2024-03-08T05:17:39;42.97;;;23.38;;
37859;SDS011;23698;52.014;5.190;2024-03-08T05:20:27;50.72;;;22.83;;
37859;SDS011;23698;52.014;5.190;2024-03-08T05:23:13;45.53;;;22.65;;
37859;SDS011;23698;52.014;5.190;2024-03-08T05:26:01;46.70;;;22.80;;
37859;SDS011;23698;52.014;5.190;2024-03-08T05:28:51;42.85;;;22.42;;
37859;SDS011;23698;52.014;5.190;2024-03-08T05:31:41;45.97;;;22.15;;
37859;SDS011;23698;52.014;5.190;2024-03-08T05:34:31;45.15;;;22.60;;
37859;SDS011;23698;52.014;5.190;2024-03-08T05:37:18;48.05;;;22.63;;
37859;SDS011;23698;52.014;5.190;2024-03-08T05:40:05;45.55;;;21.15;;
37859;SDS011;23698;52.014;5.190;2024-03-08T05:43:02;44.55;;;22.05;;
37859;SDS011;23698;52.014;5.190;2024-03-08T05:45:50;48.15;;;23.33;;
37859;SDS011;23698;52.014;5.190;2024-03-08T05:48:37;42.88;;;22.15;;
37859;SDS011;23698;52.014;5.190;2024-03-08T05:51:23;45.92;;;22.00;;
37859;SDS011;23698;52.014;5.190;2024-03-08T05:54:12;43.38;;;22.33;;
37859;SDS011;23698;52.014;5.190;2024-03-08T05:57:02;47.33;;;22.42;;
37859;SDS011;23698;52.014;5.190;2024-03-08T05:59:50;48.92;;;23.27;;
37859;SDS011;23698;52.014;5.190;2024-03-08T06:02:37;47.45;;;22.60;;
37859;SDS011;23698;52.014;5.190;2024-03-08T06:05:26;44.13;;;22.30;;
37859;SDS011;23698;52.014;5.190;2024-03-08T06:08:13;47.03;;;22.38;;
37859;SDS011;23698;52.014;5.190;2024-03-08T06:10:59;40.88;;;21.92;;
37859;SDS011;23698;52.014;5.190;2024-03-08T06:13:48;44.25;;;22.40;;
37859;SDS011;23698;52.014;5.190;2024-03-08T06:16:37;45.42;;;23.08;;
37859;SDS011;23698;52.014;5.190;2024-03-08T06:19:24;49.72;;;22.88;;
37859;SDS011;23698;52.014;5.190;2024-03-08T06:22:11;42.47;;;22.05;;
37859;SDS011;23698;52.014;5.190;2024-03-08T06:24:58;48.80;;;23.77;;
37859;SDS011;23698;52.014;5.190;2024-03-08T06:27:46;54.05;;;22.95;;
37859;SDS011;23698;52.014;5.190;2024-03-08T06:30:32;43.05;;;22.23;;
37859;SDS011;23698;52.014;5.190;2024-03-08T06:33:21;51.05;;;24.15;;
37859;SDS011;23698;52.014;5.190;2024-03-08T06:36:08;46.35;;;21.42;;
37859;SDS011;23698;52.014;5.190;2024-03-08T06:38:56;43.20;;;22.42;;
37859;SDS011;23698;52.014;5.190;2024-03-08T06:41:44;46.25;;;23.55;;
37859;SDS011;23698;52.014;5.190;2024-03-08T06:44:30;42.20;;;21.42;;
37859;SDS011;23698;52.014;5.190;2024-03-08T06:47:18;43.15;;;22.17;;
37859;SDS011;23698;52.014;5.190;2024-03-08T06:50:06;45.72;;;21.35;;
37859;SDS011;23698;52.014;5.190;2024-03-08T06:52:53;42.70;;;22.23;;
37859;SDS011;23698;52.014;5.190;2024-03-08T06:55:40;48.30;;;23.70;;
37859;SDS011;23698;52.014;5.190;2024-03-08T06:58:27;42.28;;;21.88;;
37859;SDS011;23698;52.014;5.190;2024-03-08T07:01:14;45.38;;;23.20;;
37859;SDS011;23698;52.014;5.190;2024-03-08T07:04:02;48.10;;;22.13;;
37859;SDS011;23698;52.014;5.190;2024-03-08T07:06:51;47.10;;;22.98;;
37859;SDS011;23698;52.014;5.190;2024-03-08T07:09:38;47.03;;;22.88;;
37859;SDS011;23698;52.014;5.190;2024-03-08T07:12:28;43.95;;;22.88;;
37859;SDS011;23698;52.014;5.190;2024-03-08T07:15:14;46.28;;;25.42;;
37859;SDS011;23698;52.014;5.190;2024-03-08T07:18:05;43.08;;;22.85;;
37859;SDS011;23698;52.014;5.190;2024-03-08T07:20:54;48.93;;;23.27;;
37859;SDS011;23698;52.014;5.190;2024-03-08T07:23:42;44.33;;;21.95;;
37859;SDS011;23698;52.014;5.190;2024-03-08T07:26:47;43.58;;;22.13;;
37859;SDS011;23698;52.014;5.190;2024-03-08T07:29:37;41.67;;;21.05;;
37859;SDS011;23698;52.014;5.190;2024-03-08T07:32:24;44.38;;;22.92;;
37859;SDS011;23698;52.014;5.190;2024-03-08T07:35:12;41.15;;;22.45;;
37859;SDS011;23698;52.014;5.190;2024-03-08T07:37:58;42.70;;;21.27;;
37859;SDS011;23698;52.014;5.190;2024-03-08T07:40:47;36.05;;;20.27;;
37859;SDS011;23698;52.014;5.190;2024-03-08T07:43:34;43.70;;;23.27;;
37859;SDS011;23698;52.014;5.190;2024-03-08T07:46:21;44.35;;;21.05;;
37859;SDS011;23698;52.014;5.190;2024-03-08T07:49:08;42.53;;;21.55;;
37859;SDS011;23698;52.014;5.190;2024-03-08T07:51:56;41.50;;;21.27;;
37859;SDS011;23698;52.014;5.190;2024-03-08T07:54:43;38.38;;;22.23;;
37859;SDS011;23698;52.014;5.190;2024-03-08T07:57:31;41.08;;;21.25;;
37859;SDS011;23698;52.014;5.190;2024-03-08T08:00:18;34.13;;;20.02;;
37859;SDS011;23698;52.014;5.190;2024-03-08T08:03:04;38.33;;;21.23;;
37859;SDS011;23698;52.014;5.190;2024-03-08T08:05:53;38.33;;;20.27;;
37859;SDS011;23698;52.014;5.190;2024-03-08T08:08:40;39.42;;;20.90;;
37859;SDS011;23698;52.014;5.190;2024-03-08T08:11:27;36.40;;;19.90;;
37859;SDS011;23698;52.014;5.190;2024-03-08T08:14:16;35.05;;;19.88;;
37859;SDS011;23698;52.014;5.190;2024-03-08T08:17:03;35.55;;;19.65;;
37859;SDS011;23698;52.014;5.190;2024-03-08T08:19:50;34.47;;;19.80;;
37859;SDS011;23698;52.014;5.190;2024-03-08T08:22:37;37.50;;;20.23;;
37859;SDS011;23698;52.014;5.190;2024-03-08T08:25:24;36.25;;;19.20;;
37859;SDS011;23698;52.014;5.190;2024-03-08T08:28:11;35.65;;;20.40;;
37859;SDS011;23698;52.014;5.190;2024-03-08T08:31:01;35.50;;;20.10;;
37859;SDS011;23698;52.014;5.190;2024-03-08T08:33:49;36.57;;;18.80;;
37859;SDS011;23698;52.014;5.190;2024-03-08T08:36:39;32.42;;;19.35;;
37859;SDS011;23698;52.014;5.190;2024-03-08T08:39:25;37.88;;;21.05;;
37859;SDS011;23698;52.014;5.190;2024-03-08T08:42:12;34.47;;;19.70;;
37859;SDS011;23698;52.014;5.190;2024-03-08T08:44:59;34.72;;;18.85;;
37859;SDS011;23698;52.014;5.190;2024-03-08T08:48:02;32.92;;;19.65;;
37859;SDS011;23698;52.014;5.190;2024-03-08T08:50:50;35.43;;;19.33;;
37859;SDS011;23698;52.014;5.190;2024-03-08T08:53:38;34.10;;;18.92;;
37859;SDS011;23698;52.014;5.190;2024-03-08T08:56:25;32.15;;;19.05;;
37859;SDS011;23698;52.014;5.190;2024-03-08T08:59:13;29.60;;;17.50;;
37859;SDS011;23698;52.014;5.190;2024-03-08T09:02:03;32.67;;;19.43;;
37859;SDS011;23698;52.014;5.190;2024-03-08T09:04:51;33.90;;;18.40;;
37859;SDS011;23698;52.014;5.190;2024-03-08T09:07:38;32.63;;;18.60;;
37859;SDS011;23698;52.014;5.190;2024-03-08T09:10:24;32.33;;;19.02;;
37859;SDS011;23698;52.014;5.190;2024-03-08T09:13:15;31.23;;;18.00;;
37859;SDS011;23698;52.014;5.190;2024-03-08T09:16:14;31.38;;;17.80;;
37859;SDS011;23698;52.014;5.190;2024-03-08T09:19:01;29.08;;;17.65;;
37859;SDS011;23698;52.014;5.190;2024-03-08T09:21:49;30.63;;;18.63;;
37859;SDS011;23698;52.014;5.190;2024-03-08T09:24:36;32.83;;;18.15;;
37859;SDS011;23698;52.014;5.190;2024-03-08T09:27:23;29.58;;;17.17;;
37859;SDS011;23698;52.014;5.190;2024-03-08T09:30:10;31.67;;;17.52;;
37859;SDS011;23698;52.014;5.190;2024-03-08T09:32:58;28.45;;;17.23;;
37859;SDS011;23698;52.014;5.190;2024-03-08T09:35:45;29.58;;;17.27;;
37859;SDS011;23698;52.014;5.190;2024-03-08T09:38:34;26.42;;;16.10;;
37859;SDS011;23698;52.014;5.190;2024-03-08T09:41:21;26.67;;;16.30;;
37859;SDS011;23698;52.014;5.190;2024-03-08T09:44:07;27.90;;;17.35;;
37859;SDS011;23698;52.014;5.190;2024-03-08T09:46:54;31.60;;;17.50;;
37859;SDS011;23698;52.014;5.190;2024-03-08T09:49:41;31.27;;;16.98;;
37859;SDS011;23698;52.014;5.190;2024-03-08T09:52:28;30.35;;;17.27;;
37859;SDS011;23698;52.014;5.190;2024-03-08T09:55:17;30.02;;;17.20;;
37859;SDS011;23698;52.014;5.190;2024-03-08T09:58:08;27.52;;;17.70;;
37859;SDS011;23698;52.014;5.190;2024-03-08T10:01:21;27.98;;;16.88;;
37859;SDS011;23698;52.014;5.190;2024-03-08T10:04:08;34.28;;;18.15;;
37859;SDS011;23698;52.014;5.190;2024-03-08T10:06:55;28.70;;;16.95;;
37859;SDS011;23698;52.014;5.190;2024-03-08T10:09:44;30.58;;;18.13;;
37859;SDS011;23698;52.014;5.190;2024-03-08T10:12:37;29.73;;;17.10;;
37859;SDS011;23698;52.014;5.190;2024-03-08T10:15:24;30.98;;;17.35;;
37859;SDS011;23698;52.014;5.190;2024-03-08T10:18:13;32.83;;;18.10;;
37859;SDS011;23698;52.014;5.190;2024-03-08T10:21:05;29.83;;;17.33;;
37859;SDS011;23698;52.014;5.190;2024-03-08T10:23:55;32.05;;;18.38;;
37859;SDS011;23698;52.014;5.190;2024-03-08T10:26:42;45.67;;;18.80;;
37859;SDS011;23698;52.014;5.190;2024-03-08T10:29:31;28.92;;;16.83;;
37859;SDS011;23698;52.014;5.190;2024-03-08T10:32:18;29.95;;;19.10;;
37859;SDS011;23698;52.014;5.190;2024-03-08T10:35:05;28.20;;;16.85;;
37859;SDS011;23698;52.014;5.190;2024-03-08T10:37:52;30.52;;;17.42;;
37859;SDS011;23698;52.014;5.190;2024-03-08T10:40:44;29.05;;;16.90;;
37859;SDS011;23698;52.014;5.190;2024-03-08T10:43:39;29.83;;;17.77;;
37859;SDS011;23698;52.014;5.190;2024-03-08T10:46:42;29.27;;;16.23;;
37859;SDS011;23698;52.014;5.190;2024-03-08T10:49:45;26.50;;;15.88;;
37859;SDS011;23698;52.014;5.190;2024-03-08T10:52:38;25.33;;;15.38;;
37859;SDS011;23698;52.014;5.190;2024-03-08T10:55:26;26.95;;;14.80;;
37859;SDS011;23698;52.014;5.190;2024-03-08T10:58:14;32.78;;;15.27;;
37859;SDS011;23698;52.014;5.190;2024-03-08T11:01:02;25.65;;;15.50;;
37859;SDS011;23698;52.014;5.190;2024-03-08T11:03:51;27.48;;;16.42;;
37859;SDS011;23698;52.014;5.190;2024-03-08T11:06:41;26.20;;;15.05;;
37859;SDS011;23698;52.014;5.190;2024-03-08T11:09:31;25.08;;;15.68;;
37859;SDS011;23698;52.014;5.190;2024-03-08T11:12:19;24.73;;;14.40;;
37859;SDS011;23698;52.014;5.190;2024-03-08T11:15:09;21.70;;;13.15;;
37859;SDS011;23698;52.014;5.190;2024-03-08T11:17:58;23.65;;;15.25;;
37859;SDS011;23698;52.014;5.190;2024-03-08T11:20:48;25.42;;;15.00;;
37859;SDS011;23698;52.014;5.190;2024-03-08T11:23:35;22.65;;;13.02;;
37859;SDS011;23698;52.014;5.190;2024-03-08T11:26:23;20.08;;;13.20;;
37859;SDS011;23698;52.014;5.190;2024-03-08T11:32:21;19.63;;;12.80;;
37859;SDS011;23698;52.014;5.190;2024-03-08T11:35:08;24.05;;;13.00;;
37859;SDS011;23698;52.014;5.190;2024-03-08T11:38:06;19.65;;;12.95;;
37859;SDS011;23698;52.014;5.190;2024-03-08T11:40:56;21.02;;;12.65;;
37859;SDS011;23698;52.014;5.190;2024-03-08T11:43:43;20.73;;;13.02;;
37859;SDS011;23698;52.014;5.190;2024-03-08T11:46:29;18.52;;;11.52;;
37859;SDS011;23698;52.014;5.190;2024-03-08T11:49:16;20.20;;;12.60;;
37859;SDS011;23698;52.014;5.190;2024-03-08T11:52:03;21.02;;;13.27;;
37859;SDS011;23698;52.014;5.190;2024-03-08T11:54:53;18.80;;;11.77;;
37859;SDS011;23698;52.014;5.190;2024-03-08T11:57:43;20.75;;;13.25;;
37859;SDS011;23698;52.014;5.190;2024-03-08T12:00:30;21.75;;;13.25;;
37859;SDS011;23698;52.014;5.190;2024-03-08T12:03:22;20.15;;;13.02;;
37859;SDS011;23698;52.014;5.190;2024-03-08T12:06:09;20.95;;;14.00;;
37859;SDS011;23698;52.014;5.190;2024-03-08T12:08:56;18.85;;;12.48;;
37859;SDS011;23698;52.014;5.190;2024-03-08T12:11:44;20.58;;;13.30;;
37859;SDS011;23698;52.014;5.190;2024-03-08T12:14:34;22.05;;;13.45;;
37859;SDS011;23698;52.014;5.190;2024-03-08T12:17:21;24.15;;;14.48;;
37859;SDS011;23698;52.014;5.190;2024-03-08T12:20:13;22.13;;;14.15;;
37859;SDS011;23698;52.014;5.190;2024-03-08T12:23:01;21.85;;;13.80;;
37859;SDS011;23698;52.014;5.190;2024-03-08T12:25:48;21.75;;;13.50;;
37859;SDS011;23698;52.014;5.190;2024-03-08T12:28:36;23.27;;;13.63;;
37859;SDS011;23698;52.014;5.190;2024-03-08T12:31:23;21.35;;;13.13;;
37859;SDS011;23698;52.014;5.190;2024-03-08T12:34:10;24.70;;;14.90;;
37859;SDS011;23698;52.014;5.190;2024-03-08T12:36:58;22.80;;;13.73;;
37859;SDS011;23698;52.014;5.190;2024-03-08T12:39:45;23.00;;;13.63;;
37859;SDS011;23698;52.014;5.190;2024-03-08T12:42:32;22.80;;;13.70;;
37859;SDS011;23698;52.014;5.190;2024-03-08T12:45:27;22.10;;;13.32;;
37859;SDS011;23698;52.014;5.190;2024-03-08T12:48:14;18.45;;;12.65;;
37859;SDS011;23698;52.014;5.190;2024-03-08T12:51:01;21.23;;;13.48;;
37859;SDS011;23698;52.014;5.190;2024-03-08T12:53:48;21.92;;;13.68;;
37859;SDS011;23698;52.014;5.190;2024-03-08T12:56:40;19.48;;;13.18;;
37859;SDS011;23698;52.014;5.190;2024-03-08T12:59:27;22.20;;;14.20;;
37859;SDS011;23698;52.014;5.190;2024-03-08T13:02:15;21.50;;;13.75;;
37859;SDS011;23698;52.014;5.190;2024-03-08T13:05:02;20.95;;;13.63;;
37859;SDS011;23698;52.014;5.190;2024-03-08T13:07:50;22.73;;;14.52;;
37859;SDS011;23698;52.014;5.190;2024-03-08T13:10:38;21.80;;;14.05;;
37859;SDS011;23698;52.014;5.190;2024-03-08T13:13:25;20.40;;;13.45;;
37859;SDS011;23698;52.014;5.190;2024-03-08T13:16:12;26.63;;;13.93;;
37859;SDS011;23698;52.014;5.190;2024-03-08T13:19:01;23.10;;;13.70;;
37859;SDS011;23698;52.014;5.190;2024-03-08T13:21:47;21.65;;;13.82;;
37859;SDS011;23698;52.014;5.190;2024-03-08T13:24:34;21.10;;;12.82;;
37859;SDS011;23698;52.014;5.190;2024-03-08T13:27:21;23.98;;;14.65;;
37859;SDS011;23698;52.014;5.190;2024-03-08T13:30:10;22.90;;;14.07;;
37859;SDS011;23698;52.014;5.190;2024-03-08T13:32:59;21.58;;;13.48;;
37859;SDS011;23698;52.014;5.190;2024-03-08T13:35:47;20.50;;;13.30;;
37859;SDS011;23698;52.014;5.190;2024-03-08T13:38:36;23.42;;;14.77;;
37859;SDS011;23698;52.014;5.190;2024-03-08T13:41:23;23.17;;;14.55;;
37859;SDS011;23698;52.014;5.190;2024-03-08T13:44:10;24.45;;;14.43;;
37859;SDS011;23698;52.014;5.190;2024-03-08T13:46:58;21.35;;;14.50;;
37859;SDS011;23698;52.014;5.190;2024-03-08T13:49:49;24.90;;;13.70;;
37859;SDS011;23698;52.014;5.190;2024-03-08T13:52:37;21.70;;;13.75;;
37859;SDS011;23698;52.014;5.190;2024-03-08T13:55:26;22.85;;;15.23;;
37859;SDS011;23698;52.014;5.190;2024-03-08T13:58:13;23.70;;;15.60;;
37859;SDS011;23698;52.014;5.190;2024-03-08T14:01:01;24.00;;;14.02;;
37859;SDS011;23698;52.014;5.190;2024-03-08T14:03:49;23.83;;;14.23;;
37859;SDS011;23698;52.014;5.190;2024-03-08T14:06:36;25.98;;;16.08;;
37859;SDS011;23698;52.014;5.190;2024-03-08T14:09:25;23.67;;;15.10;;
37859;SDS011;23698;52.014;5.190;2024-03-08T14:12:14;24.05;;;15.85;;
37859;SDS011;23698;52.014;5.190;2024-03-08T14:15:01;23.58;;;14.18;;
37859;SDS011;23698;52.014;5.190;2024-03-08T14:17:53;22.08;;;13.73;;
37859;SDS011;23698;52.014;5.190;2024-03-08T14:20:41;24.83;;;13.82;;
37859;SDS011;23698;52.014;5.190;2024-03-08T14:23:27;23.77;;;14.35;;
37859;SDS011;23698;52.014;5.190;2024-03-08T14:26:15;21.70;;;14.68;;
37859;SDS011;23698;52.014;5.190;2024-03-08T14:29:02;22.05;;;14.20;;
37859;SDS011;23698;52.014;5.190;2024-03-08T14:31:50;25.63;;;15.10;;
37859;SDS011;23698;52.014;5.190;2024-03-08T14:34:36;23.90;;;15.10;;
37859;SDS011;23698;52.014;5.190;2024-03-08T14:37:23;24.13;;;15.32;;
37859;SDS011;23698;52.014;5.190;2024-03-08T14:40:14;26.40;;;14.68;;
37859;SDS011;23698;52.014;5.190;2024-03-08T14:43:02;26.63;;;14.50;;
37859;SDS011;23698;52.014;5.190;2024-03-08T14:45:51;26.52;;;15.88;;
37859;SDS011;23698;52.014;5.190;2024-03-08T14:48:37;27.00;;;15.35;;
37859;SDS011;23698;52.014;5.190;2024-03-08T14:51:24;29.05;;;15.65;;
37859;SDS011;23698;52.014;5.190;2024-03-08T14:54:13;23.02;;;15.13;;
37859;SDS011;23698;52.014;5.190;2024-03-08T14:56:59;24.08;;;15.40;;
37859;SDS011;23698;52.014;5.190;2024-03-08T14:59:52;24.70;;;14.60;;
37859;SDS011;23698;52.014;5.190;2024-03-08T15:02:39;26.15;;;15.73;;
37859;SDS011;23698;52.014;5.190;2024-03-08T15:05:26;25.50;;;15.82;;
37859;SDS011;23698;52.014;5.190;2024-03-08T15:08:13;25.25;;;15.60;;
37859;SDS011;23698;52.014;5.190;2024-03-08T15:11:06;25.30;;;15.60;;
37859;SDS011;23698;52.014;5.190;2024-03-08T15:13:54;26.83;;;14.60;;
37859;SDS011;23698;52.014;5.190;2024-03-08T15:16:44;29.13;;;16.48;;
37859;SDS011;23698;52.014;5.190;2024-03-08T15:19:33;25.05;;;14.50;;
37859;SDS011;23698;52.014;5.190;2024-03-08T15:22:20;22.98;;;14.48;;
37859;SDS011;23698;52.014;5.190;2024-03-08T15:25:08;21.67;;;14.43;;
37859;SDS011;23698;52.014;5.190;2024-03-08T15:27:56;27.08;;;15.10;;
37859;SDS011;23698;52.014;5.190;2024-03-08T15:30:44;23.95;;;15.02;;
37859;SDS011;23698;52.014;5.190;2024-03-08T15:33:34;23.90;;;15.10;;
37859;SDS011;23698;52.014;5.190;2024-03-08T15:36:30;23.40;;;14.75;;
37859;SDS011;23698;52.014;5.190;2024-03-08T15:39:19;21.15;;;14.05;;
37859;SDS011;23698;52.014;5.190;2024-03-08T15:42:08;23.63;;;14.25;;
37859;SDS011;23698;52.014;5.190;2024-03-08T15:44:56;23.73;;;15.00;;
37859;SDS011;23698;52.014;5.190;2024-03-08T15:47:44;27.75;;;15.13;;
37859;SDS011;23698;52.014;5.190;2024-03-08T15:50:32;25.00;;;15.35;;
37859;SDS011;23698;52.014;5.190;2024-03-08T15:53:20;22.42;;;14.38;;
37859;SDS011;23698;52.014;5.190;2024-03-08T15:56:09;22.25;;;14.45;;
37859;SDS011;23698;52.014;5.190;2024-03-08T15:58:56;23.33;;;14.20;;
37859;SDS011;23698;52.014;5.190;2024-03-08T16:01:44;22.77;;;14.25;;
37859;SDS011;23698;52.014;5.190;2024-03-08T16:04:37;23.00;;;14.38;;
37859;SDS011;23698;52.014;5.190;2024-03-08T16:07:25;23.88;;;14.27;;
37859;SDS011;23698;52.014;5.190;2024-03-08T16:10:11;23.45;;;14.40;;
37859;SDS011;23698;52.014;5.190;2024-03-08T16:12:58;23.45;;;14.80;;
37859;SDS011;23698;52.014;5.190;2024-03-08T16:15:46;25.73;;;14.63;;
37859;SDS011;23698;52.014;5.190;2024-03-08T16:18:36;20.60;;;13.57;;
37859;SDS011;23698;52.014;5.190;2024-03-08T16:21:23;22.58;;;13.95;;
37859;SDS011;23698;52.014;5.190;2024-03-08T16:24:11;23.92;;;15.07;;
37859;SDS011;23698;52.014;5.190;2024-03-08T16:26:57;22.88;;;14.00;;